Time;durP1;ratioP1;P1;durP2;ratioP2;P2;SDS_P1;SDS_P2;PMS_P1;PMS_P2;Temp;Humidity;BMP_temperature;BMP_pressure;BME280_temperature;BME280_humidity;BME280_pressure;Samples;Min_cycle;Max_cycle;Signal;HPM_P1;HPM_P2
2023/05/01 03:23:54;;;;;;;;;;;;;;;;;;;;;
2023/05/01 03:27:17;;;;;;;11.40;2.20;;;;;;;17.35;98.68;101245.66;4764599;30;20480;-89
2023/05/01 03:53:24;;;;;;;;;;;;;;;;;;;;;
2023/05/01 04:12:51;;;;;;;11.70;2.07;;;;;;;17.46;92.50;101252.38;4685779;27;12916659;-89
2023/05/01 04:20:19;;;;;;;;;;;;;;;;;;;;;
2023/05/01 04:27:47;;;;;;;10.30;1.47;;;;;;;17.39;90.73;101240.53;4966561;28;20493;-89
2023/05/01 04:31:43;;;;;;;;;;;;;;;;;;;;;
2023/05/01 04:45:55;;;;;;;11.17;2.63;;;;;;;17.32;89.15;101239.75;4844811;29;20459;-89
2023/05/01 05:35:47;;;;;;;;;;;;;;;;;;;;;
2023/05/01 05:39:33;;;;;;;4.03;1.23;;;;;;;17.33;83.68;101280.94;5851052;24;20510;-88
2023/05/01 05:42:59;;;;;;;6.33;1.17;;;;;;;17.37;83.75;101270.28;5823121;24;20402;-88
2023/05/01 05:54:10;;;;;;;;;;;;;;;;;;;;;
2023/05/01 06:30:20;;;;;;;6.33;1.37;;;;;;;17.65;79.34;101312.19;3838902;27;34212792;-89
2023/05/01 06:33:39;;;;;;;;;;;;;;;;;;;;;
2023/05/01 06:41:17;;;;;;;;;;;;;;;;;;;;;
2023/05/01 06:45:22;;;;;;;4.57;0.97;;;;;;;17.79;78.74;101308.22;4929956;29;20800;-90
2023/05/01 06:49:05;;;;;;;4.07;1.03;;;;;;;17.99;78.67;101315.47;4817614;29;20586;-90
2023/05/01 07:02:14;;;;;;;4.37;0.90;;;;;;;18.01;77.33;101310.56;4911915;29;20473;-89
2023/05/01 07:05:23;;;;;;;3.17;0.90;;;;;;;18.14;77.75;101325.09;4912116;29;20866;-89
2023/05/01 07:23:01;;;;;;;7.00;1.17;;;;;;;18.72;76.39;101334.84;4660919;30;20436;-88
2023/05/01 07:26:12;;;;;;;5.37;1.53;;;;;;;18.75;75.96;101317.78;4666933;30;20584;-89
2023/05/01 07:29:19;;;;;;;5.00;1.27;;;;;;;18.94;75.74;101339.66;4679167;30;20947;-88
2023/05/01 07:36:28;;;;;;;10.43;1.40;;;;;;;19.02;75.19;101324.66;4659693;30;21036;-88
2023/05/01 08:12:53;;;;;;;4.90;1.20;;;;;;;20.19;71.23;101324.81;4882953;29;20789;-88
2023/05/01 08:15:25;;;;;;;3.70;1.03;;;;;;;20.34;71.22;101339.88;4927549;29;21065;-88
2023/05/01 08:18:10;;;;;;;3.07;1.10;;;;;;;20.44;71.18;101347.59;4940533;29;20534;-92
2023/05/01 08:21:30;;;;;;;10.90;1.20;;;;;;;20.55;70.52;101346.75;4889044;29;20857;-92
2023/05/01 09:00:57;;;;;;;3.87;1.13;;;;;;;22.17;66.37;101342.47;5036120;28;20944;-96
2023/05/01 09:16:46;;;;;;;4.40;1.17;;;;;;;22.86;65.26;101342.88;5039757;28;20419;-96
2023/05/01 09:56:03;;;;;;;13.43;2.20;;;;;;;24.96;61.54;101368.31;4976519;28;20385;-94
2023/05/01 10:02:29;;;;;;;9.30;2.03;;;;;;;25.16;62.19;101369.50;4973639;28;20469;-95
2023/05/01 10:12:38;;;;;;;8.00;1.70;;;;;;;25.82;62.63;101373.22;4975925;28;20437;-95
2023/05/01 10:19:24;;;;;;;10.83;2.00;;;;;;;26.32;61.11;101378.00;4981964;28;20514;-96
2023/05/01 10:22:25;;;;;;;10.53;1.97;;;;;;;26.51;61.22;101385.81;4958420;28;20553;-92
2023/05/01 15:51:40;;;;;;;5.00;1.50;;;;;;;30.96;44.15;101253.81;5042294;28;20465;-88
2023/05/01 15:54:09;;;;;;;8.00;1.60;;;;;;;30.94;43.57;101244.81;5018304;28;20452;-88
2023/05/01 15:56:37;;;;;;;6.50;1.50;;;;;;;30.87;42.21;101246.09;5035038;28;20526;-87
2023/05/01 15:59:05;;;;;;;7.13;1.77;;;;;;;30.83;42.52;101250.69;5001981;28;20513;-88
2023/05/01 16:01:34;;;;;;;6.20;1.30;;;;;;;30.68;41.86;101242.56;5002334;28;20470;-87
2023/05/01 16:04:03;;;;;;;5.07;1.40;;;;;;;30.54;42.19;101241.75;4986174;28;20442;-88
2023/05/01 16:06:53;;;;;;;4.87;1.20;;;;;;;30.50;42.44;101244.34;4986032;28;20435;-87
2023/05/01 16:09:22;;;;;;;7.23;1.87;;;;;;;30.42;42.02;101241.41;5035325;28;21123;-88
2023/05/01 16:11:50;;;;;;;7.90;1.90;;;;;;;30.40;42.40;101243.75;4985921;28;20462;-87
2023/05/01 16:14:18;;;;;;;3.10;1.10;;;;;;;30.43;42.39;101243.09;5017795;28;20867;-87
2023/05/01 16:16:46;;;;;;;3.13;1.53;;;;;;;30.50;42.90;101235.06;4985610;28;20521;-88
2023/05/01 16:19:15;;;;;;;3.10;1.60;;;;;;;30.66;42.69;101233.59;5002080;28;20509;-87
2023/05/01 16:21:43;;;;;;;4.83;1.30;;;;;;;30.52;41.62;101227.09;4986118;28;20439;-87
2023/05/01 16:24:11;;;;;;;4.40;1.63;;;;;;;30.44;41.78;101230.66;4985448;28;20543;-87
2023/05/01 16:26:40;;;;;;;3.10;1.40;;;;;;;30.34;42.29;101228.06;5001513;28;20938;-87
2023/05/01 16:29:08;;;;;;;3.00;1.50;;;;;;;30.36;42.21;101229.44;4985557;28;21006;-88
2023/05/01 16:31:36;;;;;;;7.47;1.77;;;;;;;30.32;41.83;101244.47;5001446;28;20443;-87
2023/05/01 16:34:09;;;;;;;12.90;1.77;;;;;;;30.21;41.66;101222.09;5017181;28;20442;-87
2023/05/01 16:36:41;;;;;;;7.40;1.47;;;;;;;30.09;41.84;101230.28;5017485;28;20983;-87
2023/05/01 16:39:15;;;;;;;6.03;1.63;;;;;;;29.94;42.15;101218.44;4985773;28;20461;-87
2023/05/01 16:41:44;;;;;;;5.37;1.70;;;;;;;29.84;42.43;101222.28;5001848;28;20477;-88
2023/05/01 16:44:13;;;;;;;4.77;1.57;;;;;;;29.72;42.51;101219.13;5001284;28;20439;-88
2023/05/01 16:46:41;;;;;;;4.60;1.80;;;;;;;29.55;43.09;101209.31;4985320;28;20918;-87
2023/05/01 16:49:10;;;;;;;7.40;1.80;;;;;;;29.55;42.66;101216.91;4985459;28;20514;-88
2023/05/01 16:51:41;;;;;;;9.03;1.97;;;;;;;29.58;43.07;101235.19;4984789;28;20502;-87
2023/05/01 16:54:10;;;;;;;5.43;1.30;;;;;;;29.58;43.15;101223.91;4985784;28;20449;-88
2023/05/01 16:56:38;;;;;;;4.53;1.47;;;;;;;29.48;42.81;101231.41;4984801;28;20446;-87
2023/05/01 16:59:06;;;;;;;8.53;1.73;;;;;;;29.35;43.25;101223.72;5017354;28;20846;-87
2023/05/01 17:01:35;;;;;;;6.53;2.03;;;;;;;29.21;43.94;101214.41;4984778;28;20493;-87
2023/05/01 17:04:03;;;;;;;7.73;1.30;;;;;;;29.22;45.07;101221.69;4985037;28;20439;-88
2023/05/01 17:06:31;;;;;;;5.00;1.80;;;;;;;29.21;44.98;101232.13;4984703;28;20447;-87
2023/05/01 17:12:59;;;;;;;11.40;1.50;;;;;;;28.98;44.60;101226.59;5033459;28;20427;-87
2023/05/01 17:15:27;;;;;;;6.70;1.77;;;;;;;28.85;45.43;101237.50;5016173;28;20443;-87
2023/05/01 17:17:55;;;;;;;8.70;1.93;;;;;;;28.78;45.53;101238.97;5016780;28;20439;-86
2023/05/01 17:20:23;;;;;;;11.53;2.00;;;;;;;28.52;45.98;101230.88;5000476;28;20446;-87
2023/05/01 17:22:51;;;;;;;12.40;2.27;;;;;;;28.44;47.31;101242.81;5016132;28;20498;-86
2023/05/01 17:25:19;;;;;;;8.03;2.10;;;;;;;28.33;47.99;101238.44;4984611;28;20454;-88
2023/05/01 17:27:47;;;;;;;8.43;2.00;;;;;;;28.27;48.64;101244.44;4984939;28;20534;-87
2023/05/01 17:30:17;;;;;;;9.77;2.10;;;;;;;28.12;49.38;101237.81;4984606;28;20471;-86
2023/05/01 17:32:45;;;;;;;7.57;1.90;;;;;;;28.11;49.36;101253.00;4984602;28;20459;-86
2023/05/01 17:35:14;;;;;;;13.93;2.10;;;;;;;27.95;49.84;101243.09;5016571;28;20509;-86
2023/05/01 17:37:42;;;;;;;7.30;2.20;;;;;;;27.76;50.28;101233.75;4984597;28;20439;-88
2023/05/01 17:40:10;;;;;;;9.83;1.93;;;;;;;27.64;50.70;101233.31;4999989;28;20450;-86
2023/05/01 17:42:38;;;;;;;7.80;1.90;;;;;;;27.51;51.34;101232.84;4984241;28;20979;-87
2023/05/01 17:45:09;;;;;;;10.77;2.17;;;;;;;27.40;51.06;101234.06;5016442;28;20440;-88
2023/05/01 17:51:44;;;;;;;9.80;1.83;;;;;;;27.16;50.97;101249.97;5036375;28;20478;-87
2023/05/01 17:57:54;;;;;;;12.20;2.03;;;;;;;26.88;52.02;101225.47;5033495;28;20451;-87
2023/05/01 18:00:22;;;;;;;6.07;1.50;;;;;;;26.88;52.35;101240.34;4999724;28;20498;-88
2023/05/01 18:02:51;;;;;;;7.87;2.30;;;;;;;26.78;52.94;101230.00;4984584;28;20934;-86
2023/05/01 18:05:21;;;;;;;8.80;1.93;;;;;;;26.65;53.17;101225.03;4984505;28;20445;-87
2023/05/01 18:07:51;;;;;;;7.37;2.53;;;;;;;26.50;53.47;101222.34;4983785;28;20443;-86
2023/05/01 18:10:19;;;;;;;6.20;1.80;;;;;;;26.30;54.39;101220.47;5000052;28;20517;-86
2023/05/01 18:12:48;;;;;;;5.90;1.80;;;;;;;26.20;54.68;101225.22;4999335;28;20457;-87
2023/05/01 18:15:16;;;;;;;7.27;2.03;;;;;;;26.01;54.62;101208.22;4983936;28;20475;-86
2023/05/01 18:17:49;;;;;;;12.73;2.43;;;;;;;25.95;55.57;101220.56;5000618;28;20528;-86
2023/05/01 18:28:21;;;;;;;;;;;;;;;;;;;;;
2023/05/01 18:31:09;;;;;;;8.60;1.90;;;;;;;25.39;56.85;101221.50;4953103;28;20443;-87
2023/05/01 18:33:42;;;;;;;12.27;2.30;;;;;;;25.22;57.38;101206.06;4906148;29;20960;-87
2023/05/01 18:36:23;;;;;;;8.70;2.37;;;;;;;25.06;58.03;101199.66;4910582;29;20849;-87
2023/05/01 18:38:54;;;;;;;13.00;2.70;;;;;;;24.94;58.33;101204.66;4937457;29;20447;-87
2023/05/01 18:41:25;;;;;;;9.00;2.20;;;;;;;24.87;59.09;101210.50;4923137;29;20446;-87
2023/05/01 18:43:53;;;;;;;15.10;2.40;;;;;;;24.81;59.81;101210.81;4937059;29;20546;-87
2023/05/01 18:46:24;;;;;;;11.00;2.00;;;;;;;24.69;59.85;101213.84;4922426;29;20434;-86
2023/05/01 18:48:52;;;;;;;11.63;2.63;;;;;;;24.68;60.12;101224.19;4921022;29;20487;-87
2023/05/01 18:51:20;;;;;;;13.53;2.30;;;;;;;24.58;60.54;101234.50;4917502;29;20511;-90
2023/05/01 18:53:48;;;;;;;8.67;2.53;;;;;;;24.47;60.79;101233.63;4902484;29;20865;-89
2023/05/01 18:56:16;;;;;;;7.57;2.10;;;;;;;24.35;61.55;101224.66;4917969;29;20440;-89
2023/05/01 18:58:44;;;;;;;11.43;2.10;;;;;;;24.26;61.42;101226.28;4902047;29;20495;-89
2023/05/01 19:01:12;;;;;;;14.43;2.67;;;;;;;24.21;61.37;101240.22;4917877;29;21077;-90
2023/05/01 19:03:40;;;;;;;8.37;1.90;;;;;;;24.11;61.60;101244.63;4918629;29;20440;-89
2023/05/01 19:14:04;;;;;;;9.40;1.70;;;;;;;23.69;61.58;101227.06;5032763;28;20561;-89
2023/05/01 19:16:32;;;;;;;8.37;2.20;;;;;;;23.60;61.83;101218.38;4984567;28;20467;-89
2023/05/01 19:38:18;;;;;;;9.57;2.57;;;;;;;23.14;59.68;101239.44;5034004;28;20512;-91
2023/05/01 19:45:14;;;;;;;8.93;2.47;;;;;;;23.08;59.55;101251.66;5016182;28;20428;-87
2023/05/01 19:47:44;;;;;;;10.77;2.27;;;;;;;23.02;58.74;101249.94;5020528;28;20519;-87
2023/05/01 19:50:16;;;;;;;5.30;2.07;;;;;;;22.96;58.87;101267.72;5006475;28;20577;-88
2023/05/01 19:52:51;;;;;;;5.10;1.50;;;;;;;22.94;58.98;101264.34;5006236;28;20443;-89
2023/05/01 19:55:26;;;;;;;6.10;1.73;;;;;;;22.85;58.83;101260.34;5002401;28;20446;-90
2023/05/01 19:57:58;;;;;;;6.60;1.93;;;;;;;22.83;58.82;101268.13;4996869;28;20457;-87
2023/05/01 20:00:26;;;;;;;10.00;1.90;;;;;;;22.77;58.66;101267.22;5001883;28;20851;-86
2023/05/01 20:02:55;;;;;;;4.83;1.50;;;;;;;22.72;58.42;101272.72;5001216;28;20495;-87
2023/05/01 20:20:28;;;;;;;6.60;1.50;;;;;;;22.45;58.39;101264.34;5035841;28;20441;-89
2023/05/01 20:23:17;;;;;;;4.33;1.30;;;;;;;22.47;58.77;101273.28;5022954;28;20860;-89
2023/05/01 20:29:34;;;;;;;7.67;1.70;;;;;;;22.31;58.48;101266.69;5038688;28;20496;-89
2023/05/01 20:32:03;;;;;;;2.67;1.33;;;;;;;22.38;58.28;101288.75;5001150;28;20544;-87
2023/05/01 20:41:42;;;;;;;5.97;1.43;;;;;;;22.29;57.68;101279.16;5046242;28;20836;-88
2023/05/01 20:44:12;;;;;;;9.93;2.10;;;;;;;22.26;57.70;101279.69;5021722;28;20422;-88
2023/05/01 20:46:42;;;;;;;5.70;1.97;;;;;;;22.23;57.92;101291.34;5019899;28;20441;-88
2023/05/01 20:50:03;;;;;;;10.30;2.03;;;;;;;22.22;57.93;101300.78;5008842;28;20478;-88
2023/05/01 20:52:34;;;;;;;6.13;2.00;;;;;;;22.09;58.05;101282.53;5018628;28;20448;-88
2023/05/01 20:55:02;;;;;;;4.20;1.23;;;;;;;22.14;58.03;101293.72;4981954;28;20446;-88
2023/05/01 20:57:33;;;;;;;5.23;1.40;;;;;;;22.01;58.91;101283.78;4981406;28;20448;-89
2023/05/01 21:15:33;;;;;;;6.90;1.53;;;;;;;21.67;61.42;101309.97;5014639;28;21232;-87
2023/05/01 21:18:02;;;;;;;13.53;1.83;;;;;;;21.63;62.27;101308.78;4991980;28;20451;-88
2023/05/01 21:20:34;;;;;;;9.63;2.07;;;;;;;21.53;62.49;101300.28;4984345;28;20444;-88
2023/05/01 21:23:01;;;;;;;5.67;1.53;;;;;;;21.55;62.71;101306.44;4986186;28;20501;-87
2023/05/01 21:25:30;;;;;;;5.40;1.77;;;;;;;21.53;63.02;101303.06;4981648;28;20458;-88
2023/05/01 21:28:02;;;;;;;7.53;1.63;;;;;;;21.52;62.90;101298.59;4979558;28;20468;-87
2023/05/01 21:30:32;;;;;;;7.00;2.00;;;;;;;21.49;63.41;101296.31;4996746;28;20563;-87
2023/05/01 21:33:00;;;;;;;6.23;1.67;;;;;;;21.44;63.50;101293.44;4987378;28;20547;-87
2023/05/01 21:35:31;;;;;;;2.70;1.63;;;;;;;21.47;64.14;101306.84;4975479;28;20455;-87
2023/05/01 21:37:59;;;;;;;9.60;2.13;;;;;;;21.42;64.19;101295.63;4981317;28;20468;-87
2023/05/01 21:40:45;;;;;;;5.90;1.60;;;;;;;21.46;63.99;101302.38;5000305;28;20447;-87
2023/05/01 21:43:12;;;;;;;11.57;1.83;;;;;;;21.42;63.99;101290.91;4996402;28;20445;-87
2023/05/01 21:45:43;;;;;;;7.93;1.93;;;;;;;21.49;63.93;101301.88;4977105;28;20444;-87
2023/05/01 21:48:21;;;;;;;16.80;2.67;;;;;;;21.45;64.37;101295.13;5015342;28;20443;-87
2023/05/01 22:33:46;;;;;;;5.60;1.30;;;;;;;21.45;60.15;101267.31;5043697;28;20979;-87
2023/05/01 22:36:17;;;;;;;5.50;1.80;;;;;;;21.38;59.53;101245.22;5018915;28;20438;-87
2023/05/01 22:46:19;;;;;;;9.47;1.67;;;;;;;21.37;59.06;101243.53;5049721;28;20472;-87
2023/05/01 22:48:49;;;;;;;5.07;1.90;;;;;;;21.35;58.74;101241.03;5026649;28;20439;-86
2023/05/01 22:51:19;;;;;;;10.30;1.90;;;;;;;21.31;58.98;101245.41;5005146;28;20491;-87
2023/05/01 22:53:47;;;;;;;4.27;1.70;;;;;;;21.28;59.92;101250.63;5014850;28;20450;-86
2023/05/01 22:56:15;;;;;;;5.57;1.50;;;;;;;21.16;59.89;101236.78;4999310;28;20471;-87
2023/05/01 22:58:45;;;;;;;13.70;2.20;;;;;;;21.12;60.58;101234.75;4999146;28;20945;-87
2023/05/01 23:01:13;;;;;;;6.00;1.93;;;;;;;21.02;61.21;101243.72;5032810;28;20463;-87
2023/05/01 23:03:41;;;;;;;7.47;1.90;;;;;;;20.94;62.25;101249.72;4983203;28;20459;-87
2023/05/01 23:06:10;;;;;;;15.23;1.90;;;;;;;20.73;63.11;101242.09;4982560;28;20811;-87
2023/05/01 23:08:38;;;;;;;6.17;1.57;;;;;;;20.65;63.94;101246.94;5015699;28;20443;-87
2023/05/01 23:11:05;;;;;;;10.73;1.70;;;;;;;20.59;64.41;101242.38;4984404;28;20927;-87
2023/05/01 23:13:33;;;;;;;6.40;1.93;;;;;;;20.44;64.85;101230.97;5003031;28;20435;-86
2023/05/01 23:16:01;;;;;;;5.60;1.73;;;;;;;20.40;65.48;101237.28;5002777;28;20478;-87
2023/05/01 23:18:31;;;;;;;9.33;1.90;;;;;;;20.34;66.37;101239.06;5020031;28;20481;-87
2023/05/01 23:20:59;;;;;;;7.63;1.83;;;;;;;20.23;66.40;101232.47;5022822;28;20446;-87
2023/05/01 23:23:28;;;;;;;8.50;2.07;;;;;;;20.16;66.19;101242.88;5020851;28;20807;-86
2023/05/01 23:25:55;;;;;;;3.13;1.63;;;;;;;20.09;66.38;101239.38;5004262;28;20441;-87
2023/05/01 23:28:24;;;;;;;11.90;2.47;;;;;;;20.04;66.51;101228.16;5022462;28;20451;-87
2023/05/01 23:31:02;;;;;;;8.27;2.70;;;;;;;19.94;66.39;101222.41;5022096;28;20514;-86
2023/05/01 23:33:36;;;;;;;4.43;1.70;;;;;;;19.90;66.81;101233.13;5006652;28;20439;-87
2023/05/01 23:36:11;;;;;;;7.23;1.80;;;;;;;19.87;67.50;101228.06;5022276;28;20441;-86
2023/05/01 23:38:40;;;;;;;5.30;2.20;;;;;;;19.82;67.30;101229.91;5039666;28;20865;-88
2023/05/01 23:41:08;;;;;;;8.00;1.67;;;;;;;19.76;67.29;101228.94;5013493;28;20565;-86
2023/05/01 23:43:36;;;;;;;5.03;1.60;;;;;;;19.71;68.11;101233.53;5002115;28;20538;-86
2023/05/01 23:46:06;;;;;;;6.50;1.43;;;;;;;19.69;68.21;101241.25;5009360;28;20451;-86
2023/05/01 23:48:35;;;;;;;5.43;1.30;;;;;;;19.67;68.30;101238.72;5018537;28;20970;-85
2023/05/01 23:51:03;;;;;;;4.87;2.10;;;;;;;19.55;68.81;101219.31;5008878;28;20487;-86
2023/05/01 23:53:32;;;;;;;4.77;1.93;;;;;;;19.56;68.86;101225.69;5002150;28;20440;-86
2023/05/01 23:56:00;;;;;;;4.77;2.23;;;;;;;19.55;68.29;101224.84;5005469;28;20448;-86
2023/05/01 23:58:28;;;;;;;5.93;1.90;;;;;;;19.49;68.68;101224.94;5014748;28;20448;-86
